createdAt,value
2018-02-04T00:01:16.413Z,89.20
2018-02-04T00:03:44.058Z,89.70
2018-02-04T00:06:11.698Z,90.70
2018-02-04T00:08:39.401Z,91.30
2018-02-04T00:11:07.012Z,90.90
2018-02-04T00:13:34.657Z,90.90
2018-02-04T00:16:02.350Z,90.60
2018-02-04T00:18:33.292Z,90.50
2018-02-04T00:21:00.921Z,91.00
2018-02-04T00:23:28.612Z,91.50
2018-02-04T00:25:56.294Z,91.50
2018-02-04T00:28:23.876Z,91.90
2018-02-04T00:30:51.636Z,92.00
2018-02-04T00:33:19.268Z,91.90
2018-02-04T00:38:14.582Z,90.90
2018-02-04T00:40:42.212Z,90.70
2018-02-04T00:43:09.897Z,90.60
2018-02-04T00:45:37.629Z,97.60
2018-02-04T00:48:05.280Z,94.60
2018-02-04T00:50:32.917Z,93.60
2018-02-04T00:53:00.617Z,94.70
2018-02-04T00:55:28.755Z,92.90
2018-02-04T00:57:56.323Z,93.40
2018-02-04T01:00:24.026Z,93.70
2018-02-04T01:02:51.654Z,94.10
2018-02-04T01:05:19.357Z,93.80
2018-02-04T01:10:26.194Z,94.60
2018-02-04T01:12:53.924Z,94.30
2018-02-04T01:17:49.209Z,94.00
2018-02-04T01:20:16.884Z,94.60
2018-02-04T01:25:12.724Z,96.00
2018-02-04T01:30:08.074Z,96.40
2018-02-04T01:32:35.712Z,96.10
2018-02-04T01:37:31.058Z,94.30
2018-02-04T01:39:58.702Z,93.70
2018-02-04T01:44:54.030Z,93.20
2018-02-04T01:47:21.665Z,92.40
2018-02-04T01:49:49.515Z,92.40
2018-02-04T01:52:17.132Z,92.50
2018-02-04T01:54:44.782Z,92.10
2018-02-04T01:57:12.949Z,92.20
2018-02-04T01:59:40.597Z,92.80
2018-02-04T02:04:35.994Z,92.10
2018-02-04T02:07:04.037Z,92.80
2018-02-04T02:09:31.649Z,92.70
2018-02-04T02:11:59.376Z,92.40
2018-02-04T02:14:27.007Z,92.20
2018-02-04T02:16:54.647Z,92.30
2018-02-04T02:19:22.394Z,92.70
2018-02-04T02:21:50.029Z,92.60
2018-02-04T02:26:56.869Z,92.00
2018-02-04T02:29:24.505Z,92.20
2018-02-04T02:31:52.156Z,91.30
2018-02-04T02:34:19.870Z,91.50
2018-02-04T02:36:47.493Z,91.50
2018-02-04T02:41:46.901Z,90.90
2018-02-04T02:44:14.578Z,92.00
2018-02-04T02:46:42.133Z,91.60
2018-02-04T02:49:09.874Z,93.00
2018-02-04T02:51:37.559Z,93.80
2018-02-04T02:54:05.174Z,93.10
2018-02-04T02:56:32.877Z,92.70
2018-02-04T02:59:00.504Z,92.50
2018-02-04T03:01:28.173Z,92.10
2018-02-04T03:06:23.516Z,92.50
2018-02-04T03:08:51.201Z,93.00
2018-02-04T03:11:18.939Z,93.30
2018-02-04T03:13:46.576Z,93.30
2018-02-04T03:16:14.224Z,92.70
2018-02-04T03:18:41.883Z,92.40
2018-02-04T03:21:09.526Z,91.80
2018-02-04T03:23:37.177Z,91.70
2018-02-04T03:26:04.887Z,92.10
2018-02-04T03:31:00.246Z,92.40
2018-02-04T03:33:27.923Z,91.70
2018-02-04T03:35:55.544Z,91.00
2018-02-04T03:38:23.191Z,91.50
2018-02-04T03:40:51.775Z,91.70
2018-02-04T03:45:47.056Z,91.30
2018-02-04T03:50:53.878Z,90.70
2018-02-04T03:53:21.554Z,91.10
2018-02-04T03:55:50.005Z,90.10
2018-02-04T03:58:18.507Z,89.70
2018-02-04T04:00:47.994Z,88.80
2018-02-04T04:03:13.816Z,89.50
2018-02-04T04:05:41.468Z,89.90
2018-02-04T04:08:09.172Z,90.10
2018-02-04T04:10:36.787Z,89.90
2018-02-04T04:13:04.463Z,89.80
2018-02-04T04:15:32.168Z,89.90
2018-02-04T04:17:59.797Z,89.70
2018-02-04T04:20:27.444Z,89.90
2018-02-04T04:22:55.164Z,89.80
2018-02-04T04:25:22.789Z,89.80
2018-02-04T04:27:50.436Z,90.40
2018-02-04T04:30:18.146Z,91.40
2018-02-04T04:32:45.768Z,91.50
2018-02-04T04:35:13.425Z,91.30
2018-02-04T04:37:41.181Z,91.70
2018-02-04T04:40:08.847Z,91.10
2018-02-04T04:42:36.499Z,90.90
2018-02-04T04:45:04.195Z,91.00
2018-02-04T04:47:31.887Z,91.10
2018-02-04T04:49:59.481Z,90.80
2018-02-04T04:52:27.178Z,90.90
2018-02-04T04:54:54.810Z,91.70
2018-02-04T04:57:22.481Z,92.20
2018-02-04T04:59:50.181Z,93.40
2018-02-04T05:02:17.818Z,94.00
2018-02-04T05:04:45.467Z,93.90
2018-02-04T05:07:13.180Z,94.60
2018-02-04T05:09:40.825Z,94.70
2018-02-04T05:14:48.517Z,96.10
2018-02-04T05:17:16.174Z,96.30
2018-02-04T05:19:43.792Z,95.80
2018-02-04T05:22:11.512Z,95.40
2018-02-04T05:24:39.159Z,95.00
2018-02-04T05:27:06.801Z,94.20
2018-02-04T05:29:35.358Z,94.50
2018-02-04T05:32:02.990Z,94.30
2018-02-04T05:34:30.639Z,93.80
2018-02-04T05:36:58.345Z,93.30
2018-02-04T05:39:26.003Z,93.80
2018-02-04T05:44:21.344Z,95.60
2018-02-04T05:46:54.508Z,94.90
2018-02-04T05:51:49.877Z,93.70
2018-02-04T05:54:17.508Z,94.20
2018-02-04T05:56:45.194Z,95.50
2018-02-04T05:59:12.954Z,96.30
2018-02-04T06:01:40.596Z,96.00
2018-02-04T06:04:08.274Z,95.90
2018-02-04T06:06:35.984Z,95.30
2018-02-04T06:09:03.824Z,94.60
2018-02-04T06:11:31.370Z,94.40
2018-02-04T06:13:59.047Z,94.30
2018-02-04T06:16:26.691Z,93.80
2018-02-04T06:18:54.396Z,93.40
2018-02-04T06:26:28.801Z,92.70
2018-02-04T06:28:56.440Z,93.70
2018-02-04T06:31:24.086Z,92.90
2018-02-04T06:33:52.730Z,92.00
2018-02-04T06:36:21.643Z,91.20
2018-02-04T06:38:49.217Z,91.80
2018-02-04T06:41:16.928Z,92.20
2018-02-04T06:43:44.605Z,92.70
2018-02-04T06:46:12.337Z,93.10
2018-02-04T06:48:40.029Z,93.50
2018-02-04T06:51:07.664Z,93.30
2018-02-04T06:53:35.317Z,93.20
2018-02-04T06:56:03.030Z,93.30
2018-02-04T07:00:58.304Z,94.10
2018-02-04T07:03:26.036Z,95.30
2018-02-04T07:05:54.521Z,95.80
2018-02-04T07:08:22.185Z,95.90
2018-02-04T07:10:49.893Z,95.90
2018-02-04T07:13:17.530Z,95.50
2018-02-04T07:15:45.181Z,95.50
2018-02-04T07:18:12.897Z,95.40
2018-02-04T07:23:08.176Z,94.50
2018-02-04T07:25:35.902Z,94.20
2018-02-04T07:28:03.549Z,94.00
2018-02-04T07:30:31.957Z,93.10
2018-02-04T07:32:59.665Z,93.90
2018-02-04T07:35:27.317Z,92.90
2018-02-04T07:37:54.992Z,92.40
2018-02-04T07:42:50.372Z,93.00
2018-02-04T07:45:18.008Z,92.40
2018-02-04T07:47:45.703Z,92.40
2018-02-04T07:52:52.620Z,92.70
2018-02-04T07:55:20.254Z,92.40
2018-02-04T07:57:47.902Z,91.20
2018-02-04T08:00:16.424Z,90.60
2018-02-04T08:02:44.068Z,91.00
2018-02-04T08:05:11.716Z,90.60
2018-02-04T08:07:39.452Z,91.10
2018-02-04T08:10:07.556Z,90.80
2018-02-04T08:12:35.197Z,91.20
2018-02-04T08:15:02.909Z,91.80
2018-02-04T08:17:30.522Z,91.60
2018-02-04T08:19:58.173Z,91.40
2018-02-04T08:22:25.876Z,91.00
2018-02-04T08:24:53.504Z,82.60
2018-02-04T08:27:21.154Z,85.90
2018-02-04T08:29:48.880Z,82.60
2018-02-04T08:32:16.497Z,78.30
2018-02-04T08:34:44.142Z,90.70
2018-02-04T08:37:13.510Z,87.20
2018-02-04T08:39:41.155Z,80.60
2018-02-04T08:42:09.751Z,83.30
2018-02-04T08:44:37.458Z,79.70
2018-02-04T08:47:05.088Z,78.00
2018-02-04T08:49:33.537Z,79.90
2018-02-04T08:52:01.213Z,77.30
2018-02-04T08:54:28.857Z,79.30
2018-02-04T08:59:24.176Z,81.20
2018-02-04T09:01:51.836Z,83.80
2018-02-04T09:06:47.167Z,81.50
2018-02-04T09:09:15.911Z,80.40
2018-02-04T09:14:23.958Z,79.30
2018-02-04T09:16:51.594Z,82.00
2018-02-04T09:19:21.357Z,76.90
2018-02-04T09:21:49.057Z,76.90
2018-02-04T09:24:17.493Z,75.70
2018-02-04T09:26:46.486Z,73.60
2018-02-04T09:29:14.308Z,70.70
2018-02-04T09:31:41.880Z,70.90
2018-02-04T09:34:09.519Z,69.60
2018-02-04T09:36:37.192Z,67.90
2018-02-04T09:44:27.020Z,62.20
2018-02-04T09:46:55.189Z,62.60
2018-02-04T09:49:23.089Z,64.30
2018-02-04T09:51:51.176Z,58.20
2018-02-04T09:54:18.928Z,54.90
2018-02-04T09:56:47.436Z,55.30
2018-02-04T10:07:22.932Z,53.30
2018-02-04T10:09:50.606Z,54.40
2018-02-04T10:12:18.255Z,54.30
2018-02-04T10:14:45.934Z,53.00
2018-02-04T10:17:13.610Z,51.80
2018-02-04T10:19:41.230Z,46.80
2018-02-04T10:22:09.868Z,49.30
2018-02-04T10:24:37.397Z,53.30
2018-02-04T10:27:05.063Z,54.90
2018-02-04T10:29:32.682Z,54.50
2018-02-04T10:32:00.374Z,49.70
2018-02-04T10:34:28.023Z,49.20
2018-02-04T10:36:55.658Z,50.00
2018-02-04T10:39:23.373Z,54.10
2018-02-04T10:41:50.988Z,52.50
2018-02-04T10:44:20.442Z,53.70
2018-02-04T10:46:46.378Z,53.50
2018-02-04T10:49:14.072Z,51.30
2018-02-04T10:51:47.366Z,53.40
2018-02-04T10:54:14.994Z,52.20
2018-02-04T10:56:43.634Z,51.00
2018-02-04T10:59:12.057Z,50.90
2018-02-04T11:01:40.212Z,54.00
2018-02-04T11:04:07.929Z,51.40
2018-02-04T11:06:36.014Z,47.30
2018-02-04T11:11:43.393Z,50.60
2018-02-04T11:14:13.105Z,48.70
2018-02-04T11:16:41.076Z,51.20
2018-02-04T11:19:10.424Z,65.10
2018-02-04T11:21:39.529Z,57.90
2018-02-04T11:24:07.144Z,54.00
2018-02-04T11:26:35.986Z,53.10
2018-02-04T11:29:03.521Z,56.30
2018-02-04T11:31:31.161Z,53.40
2018-02-04T11:33:59.811Z,52.40
2018-02-04T11:36:27.453Z,51.80
2018-02-04T11:38:55.078Z,54.90
2018-02-04T11:41:22.753Z,54.00
2018-02-04T11:43:50.398Z,55.20
2018-02-04T11:48:45.777Z,52.60
2018-02-04T11:51:13.420Z,53.30
2018-02-04T11:53:41.798Z,52.30
2018-02-04T11:56:10.136Z,51.40
2018-02-04T11:58:38.331Z,45.50
2018-02-04T12:01:06.494Z,47.60
2018-02-04T12:03:34.179Z,48.30
2018-02-04T12:06:01.817Z,49.00
2018-02-04T12:08:29.437Z,49.10
2018-02-04T12:10:57.156Z,50.40
2018-02-04T12:13:24.793Z,51.80
2018-02-04T12:15:52.445Z,48.50
2018-02-04T12:18:20.178Z,50.10
2018-02-04T12:20:47.823Z,51.10
2018-02-04T12:23:15.448Z,52.10
2018-02-04T12:25:43.181Z,49.70
2018-02-04T12:28:11.004Z,52.70
2018-02-04T12:30:38.609Z,51.90
2018-02-04T12:35:45.530Z,47.80
2018-02-04T12:38:13.249Z,48.60
2018-02-04T12:40:40.898Z,47.40
2018-02-04T12:43:08.525Z,45.80
2018-02-04T12:45:36.262Z,48.90
2018-02-04T12:48:03.928Z,47.90
2018-02-04T12:50:31.573Z,43.10
2018-02-04T12:52:59.274Z,41.70
2018-02-04T12:55:26.911Z,42.80
2018-02-04T12:57:54.531Z,43.20
2018-02-04T13:00:22.240Z,46.90
2018-02-04T13:02:49.891Z,46.00
2018-02-04T13:05:17.507Z,46.50
2018-02-04T13:07:45.199Z,44.90
2018-02-04T13:10:13.395Z,43.90
2018-02-04T13:12:40.978Z,45.30
2018-02-04T13:15:08.702Z,40.80
2018-02-04T13:17:36.470Z,41.70
2018-02-04T13:20:04.039Z,36.50
2018-02-04T13:22:32.070Z,35.30
2018-02-04T13:24:59.650Z,38.70
2018-02-04T13:27:27.317Z,37.90
2018-02-04T13:29:55.106Z,37.70
2018-02-04T13:32:22.675Z,37.10
2018-02-04T13:34:50.317Z,33.90
2018-02-04T13:37:18.065Z,34.20
2018-02-04T13:39:45.727Z,33.80
2018-02-04T13:44:53.119Z,36.10
2018-02-04T13:47:21.276Z,36.20
2018-02-04T13:49:48.918Z,34.30
2018-02-04T13:52:16.641Z,35.30
2018-02-04T13:54:44.265Z,32.50
2018-02-04T13:57:11.917Z,33.10
2018-02-04T13:59:39.631Z,30.90
2018-02-04T14:02:07.270Z,31.20
2018-02-04T14:04:34.930Z,33.80
2018-02-04T14:07:02.656Z,31.90
2018-02-04T14:09:30.310Z,35.30
2018-02-04T14:14:25.718Z,35.70
2018-02-04T14:16:53.389Z,34.60
2018-02-04T14:19:21.037Z,33.50
2018-02-04T14:21:49.770Z,34.10
2018-02-04T14:24:17.368Z,34.40
2018-02-04T14:26:45.073Z,34.30
2018-02-04T14:29:12.786Z,36.80
2018-02-04T14:31:40.422Z,37.40
2018-02-04T14:34:08.584Z,35.20
2018-02-04T14:36:36.337Z,36.20
2018-02-04T14:41:43.586Z,33.70
2018-02-04T14:44:11.184Z,35.60
2018-02-04T14:46:38.948Z,34.50
2018-02-04T14:49:06.611Z,29.90
2018-02-04T14:51:34.242Z,32.20
2018-02-04T14:54:01.850Z,31.10
2018-02-04T14:56:29.541Z,32.70
2018-02-04T14:58:57.178Z,33.70
2018-02-04T15:01:24.792Z,35.30
2018-02-04T15:06:20.121Z,36.90
2018-02-04T15:08:47.760Z,37.60
2018-02-04T15:11:15.484Z,38.10
2018-02-04T15:13:43.103Z,36.60
2018-02-04T15:16:10.739Z,36.90
2018-02-04T15:18:38.418Z,37.70
2018-02-04T15:21:06.049Z,36.30
2018-02-04T15:23:33.687Z,36.70
2018-02-04T15:28:41.197Z,42.70
2018-02-04T15:31:08.899Z,43.60
2018-02-04T15:36:04.199Z,44.90
2018-02-04T15:38:31.898Z,46.00
2018-02-04T15:40:59.532Z,45.70
2018-02-04T15:43:27.138Z,46.40
2018-02-04T15:45:54.904Z,44.80
2018-02-04T15:48:22.979Z,46.20
2018-02-04T15:50:51.001Z,45.10
2018-02-04T15:53:18.694Z,44.20
2018-02-04T15:55:46.301Z,43.80
2018-02-04T15:58:14.552Z,44.00
2018-02-04T16:00:42.206Z,45.40
2018-02-04T16:03:09.819Z,48.70
2018-02-04T16:05:37.449Z,50.40
2018-02-04T16:08:05.152Z,50.90
2018-02-04T16:13:00.406Z,55.10
2018-02-04T16:15:28.149Z,56.80
2018-02-04T16:17:55.780Z,56.70
2018-02-04T16:20:23.419Z,56.00
2018-02-04T16:22:51.132Z,57.00
2018-02-04T16:25:19.061Z,57.90
2018-02-04T16:27:46.722Z,59.70
2018-02-04T16:30:14.738Z,59.30
2018-02-04T16:32:42.388Z,59.90
2018-02-04T16:35:10.073Z,57.60
2018-02-04T16:37:37.732Z,58.40
2018-02-04T16:40:05.424Z,64.50
2018-02-04T16:42:33.028Z,63.60
2018-02-04T16:45:00.759Z,64.20
2018-02-04T16:47:28.394Z,62.00
2018-02-04T16:49:56.020Z,62.10
2018-02-04T16:55:02.807Z,62.70
2018-02-04T16:57:30.913Z,62.60
2018-02-04T16:59:58.483Z,66.70
2018-02-04T17:02:26.154Z,70.60
2018-02-04T17:04:54.482Z,75.20
2018-02-04T17:07:22.102Z,76.50
2018-02-04T17:12:17.404Z,78.00
2018-02-04T17:14:45.311Z,79.40
2018-02-04T17:17:13.415Z,78.60
2018-02-04T17:19:41.061Z,79.10
2018-02-04T17:22:08.707Z,79.20
2018-02-04T17:24:36.701Z,79.60
2018-02-04T17:27:04.401Z,80.00
2018-02-04T17:29:32.018Z,80.60
2018-02-04T17:31:59.659Z,81.60
2018-02-04T17:34:27.378Z,81.70
2018-02-04T17:36:55.026Z,82.00
2018-02-04T17:39:22.678Z,82.20
2018-02-04T17:41:50.381Z,81.60
2018-02-04T17:44:18.016Z,82.20
2018-02-04T17:46:45.674Z,83.10
2018-02-04T17:49:13.347Z,83.20
2018-02-04T17:54:08.659Z,81.10
2018-02-04T17:56:36.352Z,80.80
2018-02-04T17:59:03.996Z,80.90
2018-02-04T18:01:32.445Z,80.70
2018-02-04T18:04:00.146Z,80.90
2018-02-04T18:06:28.315Z,80.80
2018-02-04T18:08:55.945Z,80.70
2018-02-04T18:11:23.628Z,81.70
2018-02-04T18:13:51.270Z,81.50
2018-02-04T18:16:18.915Z,81.40
2018-02-04T18:21:25.750Z,80.70
2018-02-04T18:23:53.410Z,80.20
2018-02-04T18:26:21.060Z,80.70
2018-02-04T18:31:42.429Z,79.80
2018-02-04T18:34:10.073Z,80.70
2018-02-04T18:36:37.717Z,80.80
2018-02-04T18:39:06.382Z,80.90
2018-02-04T18:41:34.002Z,81.20
2018-02-04T18:44:01.651Z,81.10
2018-02-04T18:46:29.345Z,81.60
2018-02-04T18:48:56.968Z,81.40
2018-02-04T18:51:24.579Z,83.80
2018-02-04T18:53:52.423Z,82.10
2018-02-04T18:56:20.781Z,81.90
2018-02-04T19:01:30.272Z,82.20
2018-02-04T19:03:57.897Z,80.50
2018-02-04T19:06:25.572Z,75.50
2018-02-04T19:08:53.305Z,78.40
2018-02-04T19:11:20.958Z,75.20
2018-02-04T19:13:49.146Z,73.10
2018-02-04T19:16:16.818Z,72.60
2018-02-04T19:18:44.490Z,71.30
2018-02-04T19:21:12.104Z,71.70
2018-02-04T19:23:41.440Z,72.50
2018-02-04T19:26:09.166Z,70.50
2018-02-04T19:28:36.819Z,72.00
2018-02-04T19:31:04.498Z,73.60
2018-02-04T19:33:32.144Z,71.90
2018-02-04T19:36:00.100Z,75.10
2018-02-04T19:38:27.801Z,73.90
2018-02-04T19:40:55.420Z,74.70
2018-02-04T19:43:23.055Z,78.10
2018-02-04T19:45:51.442Z,78.30
2018-02-04T19:48:19.074Z,78.80
2018-02-04T19:50:46.701Z,79.40
2018-02-04T19:53:20.039Z,78.30
2018-02-04T19:55:48.886Z,76.10
2018-02-04T19:58:16.769Z,75.90
2018-02-04T20:00:44.406Z,75.60
2018-02-04T20:03:12.031Z,74.20
2018-02-04T20:05:39.752Z,73.00
2018-02-04T20:08:07.511Z,73.40
2018-02-04T20:10:35.134Z,73.30
2018-02-04T20:13:02.838Z,73.80
2018-02-04T20:15:30.488Z,72.90
2018-02-04T20:17:58.143Z,74.20
2018-02-04T20:20:25.849Z,74.90
2018-02-04T20:22:53.494Z,74.90
2018-02-04T20:28:00.307Z,73.10
2018-02-04T20:30:27.934Z,74.10
2018-02-04T20:33:07.423Z,71.50
2018-02-04T20:35:35.031Z,70.70
2018-02-04T20:38:02.662Z,70.10
2018-02-04T20:40:30.352Z,69.00
2018-02-04T20:42:57.996Z,68.90
2018-02-04T20:45:25.611Z,68.90
2018-02-04T20:47:53.281Z,67.80
2018-02-04T20:50:20.937Z,68.50
2018-02-04T20:55:16.304Z,68.90
2018-02-04T20:57:43.982Z,69.00
2018-02-04T21:00:11.740Z,78.90
2018-02-04T21:02:39.884Z,70.90
2018-02-04T21:05:07.470Z,70.10
2018-02-04T21:07:35.109Z,76.20
2018-02-04T21:10:02.808Z,69.50
2018-02-04T21:12:30.439Z,74.00
2018-02-04T21:14:58.424Z,68.70
2018-02-04T21:17:26.153Z,68.70
2018-02-04T21:19:53.814Z,74.60
2018-02-04T21:22:22.426Z,80.30
2018-02-04T21:24:50.154Z,81.50
2018-02-04T21:27:17.788Z,74.20
2018-02-04T21:29:45.450Z,71.80
2018-02-04T21:32:13.150Z,67.30
2018-02-04T21:34:40.784Z,68.20
2018-02-04T21:37:08.728Z,65.70
2018-02-04T21:39:41.365Z,65.30
2018-02-04T21:42:08.993Z,66.50
2018-02-04T21:44:36.660Z,67.50
2018-02-04T21:47:04.422Z,63.80
2018-02-04T21:52:11.183Z,63.70
2018-02-04T21:54:38.820Z,63.70
2018-02-04T21:57:06.448Z,65.30
2018-02-04T22:04:40.541Z,63.60
2018-02-04T22:07:08.198Z,63.40
2018-02-04T22:09:36.276Z,62.80
2018-02-04T22:12:04.086Z,63.00
2018-02-04T22:14:31.729Z,63.10
2018-02-04T22:17:00.317Z,65.30
2018-02-04T22:19:28.027Z,66.40
2018-02-04T22:21:56.893Z,67.30
2018-02-04T22:24:24.813Z,66.40
2018-02-04T22:26:52.473Z,68.20
2018-02-04T22:29:20.178Z,68.30
2018-02-04T22:31:47.784Z,67.50
2018-02-04T22:34:16.403Z,67.20
2018-02-04T22:36:46.496Z,68.90
2018-02-04T22:39:14.103Z,67.00
2018-02-04T22:41:41.768Z,68.00
2018-02-04T22:44:09.387Z,68.80
2018-02-04T22:46:39.855Z,71.10
2018-02-04T22:49:04.779Z,71.00
2018-02-04T22:51:32.350Z,70.20
2018-02-04T22:53:59.984Z,71.40
2018-02-04T22:56:27.659Z,70.20
2018-02-04T23:01:22.912Z,68.60
2018-02-04T23:03:54.469Z,68.50
2018-02-04T23:06:22.851Z,68.70
2018-02-04T23:08:50.481Z,69.60
2018-02-04T23:11:18.177Z,70.70
2018-02-04T23:13:45.797Z,69.60
2018-02-04T23:18:45.988Z,69.10
2018-02-04T23:23:52.826Z,65.40
2018-02-04T23:26:20.476Z,65.30
2018-02-04T23:28:48.105Z,66.10
2018-02-04T23:31:15.852Z,64.00
2018-02-04T23:33:43.489Z,63.90
2018-02-04T23:36:11.127Z,66.40
2018-02-04T23:38:38.828Z,65.90
2018-02-04T23:41:06.473Z,65.40
2018-02-04T23:43:34.103Z,65.70
2018-02-04T23:46:01.861Z,65.30
2018-02-04T23:48:29.855Z,64.40
2018-02-04T23:50:57.501Z,64.40
2018-02-04T23:53:25.494Z,65.10
2018-02-04T23:55:53.977Z,66.80
2018-02-04T23:58:22.763Z,66.90
